Decoded Metar for LFSX (LUXEUIL in FRANCE) (IATA:N/A) | Meteo·Mobile Aviation Weather
aviador You're here:

LFSX Decoded Metar

LUXEUIL in FRANCE
Report Time2019-07-19 18:30:00
UTC Time2019-07-19 18:40:25
Flight Rules vfr VFR
Wind250° at 01 kt
W.Decomp.*RWY 29: 0.8 kt HW 0.7 kt LCW
Visibility9999 m
Phenomena:N/A
Clouds:N/A
Expected CloudBase > 5,600 ft AGL from Temp-Dew spread
CeilingNone
Temp27°C (ISA +14)
Dew Point13°C (42% RH)
Heat Index27.0°C
QNH1015 hPa
Density Alt2,618 ft
Elevation896 ft
Report Wrong Elevation
Raw Report
METAR LFSX 191830Z AUTO 25001KT CAVOK 27/13 Q1015=

Extra information for LFSX:More info

Metar Taf Metar & Taf Last 4 Metars F.Rules Stats Wind Profile Meteogram Temp Stats Airport Information Weather charts Add Link Nearby VenuesMetar ALERT Operation Metar Decoded Social comments